sensor_id;sensor_type;location;lat;lon;timestamp;temperature;humidity
25991;DHT22;13779;-33.886;151.198;2023-08-24T00:01:24;16.10;99.90
25991;DHT22;13779;-33.886;151.198;2023-08-24T00:03:55;16.10;99.90
25991;DHT22;13779;-33.886;151.198;2023-08-24T00:06:26;16.00;99.90
25991;DHT22;13779;-33.886;151.198;2023-08-24T00:08:57;16.00;99.90
25991;DHT22;13779;-33.886;151.198;2023-08-24T00:11:29;16.00;99.90
25991;DHT22;13779;-33.886;151.198;2023-08-24T00:14:00;16.00;99.90
25991;DHT22;13779;-33.886;151.198;2023-08-24T00:16:32;16.00;99.90
25991;DHT22;13779;-33.886;151.198;2023-08-24T00:19:02;16.00;99.90
25991;DHT22;13779;-33.886;151.198;2023-08-24T00:21:33;16.10;99.90
25991;DHT22;13779;-33.886;151.198;2023-08-24T00:24:04;16.10;99.90
25991;DHT22;13779;-33.886;151.198;2023-08-24T00:26:34;16.20;99.90
25991;DHT22;13779;-33.886;151.198;2023-08-24T00:29:05;16.30;99.90
25991;DHT22;13779;-33.886;151.198;2023-08-24T00:31:36;16.40;99.90
25991;DHT22;13779;-33.886;151.198;2023-08-24T00:34:07;16.60;99.90
25991;DHT22;13779;-33.886;151.198;2023-08-24T00:36:39;16.80;99.90
25991;DHT22;13779;-33.886;151.198;2023-08-24T00:39:09;16.80;99.90
25991;DHT22;13779;-33.886;151.198;2023-08-24T00:41:41;16.80;99.90
25991;DHT22;13779;-33.886;151.198;2023-08-24T00:44:12;16.70;99.90
25991;DHT22;13779;-33.886;151.198;2023-08-24T00:46:43;16.70;99.90
25991;DHT22;13779;-33.886;151.198;2023-08-24T00:49:13;16.70;99.90
25991;DHT22;13779;-33.886;151.198;2023-08-24T00:51:44;16.60;99.90
25991;DHT22;13779;-33.886;151.198;2023-08-24T00:54:16;16.60;99.90
25991;DHT22;13779;-33.886;151.198;2023-08-24T00:56:47;16.60;99.90
25991;DHT22;13779;-33.886;151.198;2023-08-24T00:59:18;16.70;99.90
25991;DHT22;13779;-33.886;151.198;2023-08-24T01:01:49;16.70;99.90
25991;DHT22;13779;-33.886;151.198;2023-08-24T01:04:22;16.80;99.90
25991;DHT22;13779;-33.886;151.198;2023-08-24T01:06:53;16.80;99.90
25991;DHT22;13779;-33.886;151.198;2023-08-24T01:09:23;16.80;99.90
25991;DHT22;13779;-33.886;151.198;2023-08-24T01:14:55;16.80;99.90
25991;DHT22;13779;-33.886;151.198;2023-08-24T01:17:31;16.80;99.90
25991;DHT22;13779;-33.886;151.198;2023-08-24T01:20:03;16.80;99.90
25991;DHT22;13779;-33.886;151.198;2023-08-24T01:22:54;16.80;99.90
25991;DHT22;13779;-33.886;151.198;2023-08-24T01:25:43;16.90;99.90
25991;DHT22;13779;-33.886;151.198;2023-08-24T01:28:16;16.90;99.90
25991;DHT22;13779;-33.886;151.198;2023-08-24T01:30:49;16.90;99.90
25991;DHT22;13779;-33.886;151.198;2023-08-24T01:33:19;16.90;99.90
25991;DHT22;13779;-33.886;151.198;2023-08-24T01:35:51;16.90;99.90
25991;DHT22;13779;-33.886;151.198;2023-08-24T01:38:22;16.90;99.90
25991;DHT22;13779;-33.886;151.198;2023-08-24T01:43:34;17.00;99.90
25991;DHT22;13779;-33.886;151.198;2023-08-24T01:46:15;17.00;99.90
25991;DHT22;13779;-33.886;151.198;2023-08-24T01:48:47;17.00;99.90
25991;DHT22;13779;-33.886;151.198;2023-08-24T01:51:18;17.10;99.90
25991;DHT22;13779;-33.886;151.198;2023-08-24T01:53:48;17.30;99.90
25991;DHT22;13779;-33.886;151.198;2023-08-24T01:56:19;17.30;99.90
25991;DHT22;13779;-33.886;151.198;2023-08-24T01:58:49;17.40;99.90
25991;DHT22;13779;-33.886;151.198;2023-08-24T02:01:20;17.40;99.90
25991;DHT22;13779;-33.886;151.198;2023-08-24T02:03:50;17.40;99.90
25991;DHT22;13779;-33.886;151.198;2023-08-24T02:06:24;17.30;99.90
25991;DHT22;13779;-33.886;151.198;2023-08-24T02:08:56;17.30;99.90
25991;DHT22;13779;-33.886;151.198;2023-08-24T02:11:27;17.30;99.90
25991;DHT22;13779;-33.886;151.198;2023-08-24T02:13:57;17.30;99.90
25991;DHT22;13779;-33.886;151.198;2023-08-24T02:16:28;17.30;99.90
25991;DHT22;13779;-33.886;151.198;2023-08-24T02:18:59;17.30;99.90
25991;DHT22;13779;-33.886;151.198;2023-08-24T02:21:30;17.30;99.90
25991;DHT22;13779;-33.886;151.198;2023-08-24T02:24:01;17.30;99.90
25991;DHT22;13779;-33.886;151.198;2023-08-24T02:26:31;17.30;99.90
25991;DHT22;13779;-33.886;151.198;2023-08-24T02:29:02;17.30;99.90
25991;DHT22;13779;-33.886;151.198;2023-08-24T02:31:33;17.20;99.90
25991;DHT22;13779;-33.886;151.198;2023-08-24T02:34:03;17.30;99.90
25991;DHT22;13779;-33.886;151.198;2023-08-24T02:36:34;17.30;99.90
25991;DHT22;13779;-33.886;151.198;2023-08-24T02:39:04;17.30;99.90
25991;DHT22;13779;-33.886;151.198;2023-08-24T02:41:36;17.30;99.90
25991;DHT22;13779;-33.886;151.198;2023-08-24T02:44:06;17.40;99.90
25991;DHT22;13779;-33.886;151.198;2023-08-24T02:46:37;17.40;99.90
25991;DHT22;13779;-33.886;151.198;2023-08-24T02:49:08;17.40;99.90
25991;DHT22;13779;-33.886;151.198;2023-08-24T02:51:39;17.40;99.90
25991;DHT22;13779;-33.886;151.198;2023-08-24T02:54:10;17.40;99.90
25991;DHT22;13779;-33.886;151.198;2023-08-24T02:56:41;17.40;99.90
25991;DHT22;13779;-33.886;151.198;2023-08-24T02:59:12;17.40;99.90
25991;DHT22;13779;-33.886;151.198;2023-08-24T03:01:42;17.40;99.90
25991;DHT22;13779;-33.886;151.198;2023-08-24T03:04:13;17.40;99.90
25991;DHT22;13779;-33.886;151.198;2023-08-24T03:06:44;17.40;99.90
25991;DHT22;13779;-33.886;151.198;2023-08-24T03:09:15;17.50;99.90
25991;DHT22;13779;-33.886;151.198;2023-08-24T03:11:49;17.50;99.90
25991;DHT22;13779;-33.886;151.198;2023-08-24T03:14:19;17.50;99.90
25991;DHT22;13779;-33.886;151.198;2023-08-24T03:16:50;17.50;99.90
25991;DHT22;13779;-33.886;151.198;2023-08-24T03:19:20;17.50;99.90
25991;DHT22;13779;-33.886;151.198;2023-08-24T03:21:51;17.40;99.90
25991;DHT22;13779;-33.886;151.198;2023-08-24T03:24:21;17.40;99.90
25991;DHT22;13779;-33.886;151.198;2023-08-24T03:26:52;17.40;99.90
25991;DHT22;13779;-33.886;151.198;2023-08-24T03:29:23;17.40;99.90
25991;DHT22;13779;-33.886;151.198;2023-08-24T03:31:53;17.40;99.90
25991;DHT22;13779;-33.886;151.198;2023-08-24T03:34:24;17.40;99.90
25991;DHT22;13779;-33.886;151.198;2023-08-24T03:36:55;17.40;99.90
25991;DHT22;13779;-33.886;151.198;2023-08-24T03:39:26;17.40;99.90
25991;DHT22;13779;-33.886;151.198;2023-08-24T03:41:57;17.30;99.90
25991;DHT22;13779;-33.886;151.198;2023-08-24T03:44:28;17.30;99.90
25991;DHT22;13779;-33.886;151.198;2023-08-24T03:46:59;17.40;99.90
25991;DHT22;13779;-33.886;151.198;2023-08-24T03:49:30;17.40;99.90
25991;DHT22;13779;-33.886;151.198;2023-08-24T03:52:01;17.40;99.90
25991;DHT22;13779;-33.886;151.198;2023-08-24T03:54:32;17.40;99.90
25991;DHT22;13779;-33.886;151.198;2023-08-24T03:57:03;17.40;99.90
25991;DHT22;13779;-33.886;151.198;2023-08-24T03:59:34;17.40;99.90
25991;DHT22;13779;-33.886;151.198;2023-08-24T04:02:04;17.50;99.90
25991;DHT22;13779;-33.886;151.198;2023-08-24T04:04:35;17.50;99.90
25991;DHT22;13779;-33.886;151.198;2023-08-24T04:07:06;17.50;99.90
25991;DHT22;13779;-33.886;151.198;2023-08-24T04:09:37;17.50;99.90
25991;DHT22;13779;-33.886;151.198;2023-08-24T04:12:08;17.60;99.90
25991;DHT22;13779;-33.886;151.198;2023-08-24T04:14:38;17.90;99.90
25991;DHT22;13779;-33.886;151.198;2023-08-24T04:17:09;18.10;99.90
25991;DHT22;13779;-33.886;151.198;2023-08-24T04:19:40;18.30;99.90
25991;DHT22;13779;-33.886;151.198;2023-08-24T04:22:11;18.40;99.90
25991;DHT22;13779;-33.886;151.198;2023-08-24T04:24:41;18.30;99.90
25991;DHT22;13779;-33.886;151.198;2023-08-24T04:27:12;18.30;99.90
25991;DHT22;13779;-33.886;151.198;2023-08-24T04:29:42;18.20;99.90
25991;DHT22;13779;-33.886;151.198;2023-08-24T04:32:13;18.10;99.90
25991;DHT22;13779;-33.886;151.198;2023-08-24T04:34:47;18.10;99.90
25991;DHT22;13779;-33.886;151.198;2023-08-24T04:37:17;18.10;99.90
25991;DHT22;13779;-33.886;151.198;2023-08-24T04:39:48;18.20;99.90
25991;DHT22;13779;-33.886;151.198;2023-08-24T04:42:19;18.20;99.90
25991;DHT22;13779;-33.886;151.198;2023-08-24T04:44:51;18.20;99.90
25991;DHT22;13779;-33.886;151.198;2023-08-24T04:47:22;18.00;99.90
25991;DHT22;13779;-33.886;151.198;2023-08-24T04:49:52;18.10;99.90
25991;DHT22;13779;-33.886;151.198;2023-08-24T04:52:24;18.00;99.90
25991;DHT22;13779;-33.886;151.198;2023-08-24T04:54:55;18.00;99.90
25991;DHT22;13779;-33.886;151.198;2023-08-24T04:57:26;18.10;99.90
25991;DHT22;13779;-33.886;151.198;2023-08-24T04:59:56;18.30;99.90
25991;DHT22;13779;-33.886;151.198;2023-08-24T05:02:27;18.60;99.90
25991;DHT22;13779;-33.886;151.198;2023-08-24T05:04:58;18.60;99.90
25991;DHT22;13779;-33.886;151.198;2023-08-24T05:07:28;18.50;99.90
25991;DHT22;13779;-33.886;151.198;2023-08-24T05:10:00;18.40;99.90
25991;DHT22;13779;-33.886;151.198;2023-08-24T05:12:31;18.40;99.90
25991;DHT22;13779;-33.886;151.198;2023-08-24T05:15:04;18.40;99.90
25991;DHT22;13779;-33.886;151.198;2023-08-24T05:17:35;18.40;99.90
25991;DHT22;13779;-33.886;151.198;2023-08-24T05:20:06;18.30;99.90
25991;DHT22;13779;-33.886;151.198;2023-08-24T05:22:38;18.20;99.90
25991;DHT22;13779;-33.886;151.198;2023-08-24T05:25:09;18.10;99.90
25991;DHT22;13779;-33.886;151.198;2023-08-24T05:27:40;18.10;99.90
25991;DHT22;13779;-33.886;151.198;2023-08-24T05:30:11;18.00;99.90
25991;DHT22;13779;-33.886;151.198;2023-08-24T05:32:43;18.10;99.90
25991;DHT22;13779;-33.886;151.198;2023-08-24T05:35:14;18.10;99.90
25991;DHT22;13779;-33.886;151.198;2023-08-24T05:37:45;18.10;99.90
25991;DHT22;13779;-33.886;151.198;2023-08-24T05:40:15;18.00;99.90
25991;DHT22;13779;-33.886;151.198;2023-08-24T05:42:46;18.00;99.90
25991;DHT22;13779;-33.886;151.198;2023-08-24T05:45:17;18.00;99.90
25991;DHT22;13779;-33.886;151.198;2023-08-24T05:47:47;17.90;99.90
25991;DHT22;13779;-33.886;151.198;2023-08-24T05:50:18;17.80;99.90
25991;DHT22;13779;-33.886;151.198;2023-08-24T05:52:49;17.80;99.90
25991;DHT22;13779;-33.886;151.198;2023-08-24T05:55:19;17.70;99.90
25991;DHT22;13779;-33.886;151.198;2023-08-24T05:57:50;17.70;99.90
25991;DHT22;13779;-33.886;151.198;2023-08-24T06:00:21;17.70;99.90
25991;DHT22;13779;-33.886;151.198;2023-08-24T06:02:52;17.70;99.90
25991;DHT22;13779;-33.886;151.198;2023-08-24T06:05:22;17.70;99.90
25991;DHT22;13779;-33.886;151.198;2023-08-24T06:07:53;17.60;99.90
25991;DHT22;13779;-33.886;151.198;2023-08-24T06:10:24;17.60;99.90
25991;DHT22;13779;-33.886;151.198;2023-08-24T06:12:56;17.60;99.90
25991;DHT22;13779;-33.886;151.198;2023-08-24T06:15:27;17.50;99.90
25991;DHT22;13779;-33.886;151.198;2023-08-24T06:17:58;17.40;99.90
25991;DHT22;13779;-33.886;151.198;2023-08-24T06:20:29;17.40;99.90
25991;DHT22;13779;-33.886;151.198;2023-08-24T06:23:00;17.40;99.90
25991;DHT22;13779;-33.886;151.198;2023-08-24T06:25:31;17.40;99.90
25991;DHT22;13779;-33.886;151.198;2023-08-24T06:28:02;17.30;99.90
25991;DHT22;13779;-33.886;151.198;2023-08-24T06:30:33;17.30;99.90
25991;DHT22;13779;-33.886;151.198;2023-08-24T06:33:08;17.30;99.90
25991;DHT22;13779;-33.886;151.198;2023-08-24T06:35:41;17.30;99.90
25991;DHT22;13779;-33.886;151.198;2023-08-24T06:38:12;17.20;99.90
25991;DHT22;13779;-33.886;151.198;2023-08-24T06:40:43;17.20;99.90
25991;DHT22;13779;-33.886;151.198;2023-08-24T06:43:14;17.20;99.90
25991;DHT22;13779;-33.886;151.198;2023-08-24T06:45:48;17.20;99.90
25991;DHT22;13779;-33.886;151.198;2023-08-24T06:48:18;17.20;99.90
25991;DHT22;13779;-33.886;151.198;2023-08-24T06:50:50;17.20;99.90
25991;DHT22;13779;-33.886;151.198;2023-08-24T06:53:21;17.10;99.90
25991;DHT22;13779;-33.886;151.198;2023-08-24T06:55:58;17.10;99.90
25991;DHT22;13779;-33.886;151.198;2023-08-24T06:58:29;17.10;99.90
25991;DHT22;13779;-33.886;151.198;2023-08-24T07:01:00;17.10;99.90
25991;DHT22;13779;-33.886;151.198;2023-08-24T07:03:35;17.10;99.90
25991;DHT22;13779;-33.886;151.198;2023-08-24T07:06:09;17.00;99.90
25991;DHT22;13779;-33.886;151.198;2023-08-24T07:08:42;17.00;99.90
25991;DHT22;13779;-33.886;151.198;2023-08-24T07:11:12;16.90;99.90
25991;DHT22;13779;-33.886;151.198;2023-08-24T07:13:44;16.90;99.90
25991;DHT22;13779;-33.886;151.198;2023-08-24T07:16:15;16.90;99.90
25991;DHT22;13779;-33.886;151.198;2023-08-24T07:18:46;16.80;99.90
25991;DHT22;13779;-33.886;151.198;2023-08-24T07:21:17;16.80;99.90
25991;DHT22;13779;-33.886;151.198;2023-08-24T07:23:48;16.80;99.90
25991;DHT22;13779;-33.886;151.198;2023-08-24T07:26:19;16.70;99.90
25991;DHT22;13779;-33.886;151.198;2023-08-24T07:28:49;16.70;99.90
25991;DHT22;13779;-33.886;151.198;2023-08-24T07:31:20;16.70;99.90
25991;DHT22;13779;-33.886;151.198;2023-08-24T07:33:50;16.70;99.90
25991;DHT22;13779;-33.886;151.198;2023-08-24T07:36:21;16.60;99.90
25991;DHT22;13779;-33.886;151.198;2023-08-24T07:38:52;16.60;99.90
25991;DHT22;13779;-33.886;151.198;2023-08-24T07:41:22;16.60;99.90
25991;DHT22;13779;-33.886;151.198;2023-08-24T07:43:53;16.60;99.90
25991;DHT22;13779;-33.886;151.198;2023-08-24T07:46:24;16.60;99.90
25991;DHT22;13779;-33.886;151.198;2023-08-24T07:49:00;16.50;99.90
25991;DHT22;13779;-33.886;151.198;2023-08-24T07:51:36;16.50;99.90
25991;DHT22;13779;-33.886;151.198;2023-08-24T07:54:06;16.40;99.90
25991;DHT22;13779;-33.886;151.198;2023-08-24T07:56:37;16.40;99.90
25991;DHT22;13779;-33.886;151.198;2023-08-24T07:59:07;16.40;99.90
25991;DHT22;13779;-33.886;151.198;2023-08-24T08:01:37;16.40;99.90
25991;DHT22;13779;-33.886;151.198;2023-08-24T08:04:08;16.30;99.90
25991;DHT22;13779;-33.886;151.198;2023-08-24T08:06:45;16.30;99.90
25991;DHT22;13779;-33.886;151.198;2023-08-24T08:09:15;16.40;99.90
25991;DHT22;13779;-33.886;151.198;2023-08-24T08:11:47;16.30;99.90
25991;DHT22;13779;-33.886;151.198;2023-08-24T08:14:17;16.30;99.90
25991;DHT22;13779;-33.886;151.198;2023-08-24T08:16:47;16.30;99.90
25991;DHT22;13779;-33.886;151.198;2023-08-24T08:19:17;16.30;99.90
25991;DHT22;13779;-33.886;151.198;2023-08-24T08:21:49;16.20;99.90
25991;DHT22;13779;-33.886;151.198;2023-08-24T08:24:20;16.20;99.90
25991;DHT22;13779;-33.886;151.198;2023-08-24T08:26:53;16.20;99.90
25991;DHT22;13779;-33.886;151.198;2023-08-24T08:29:23;16.20;99.90
25991;DHT22;13779;-33.886;151.198;2023-08-24T08:31:54;16.20;99.90
25991;DHT22;13779;-33.886;151.198;2023-08-24T08:34:25;16.20;99.90
25991;DHT22;13779;-33.886;151.198;2023-08-24T08:36:55;16.20;99.90
25991;DHT22;13779;-33.886;151.198;2023-08-24T08:39:26;16.20;99.90
25991;DHT22;13779;-33.886;151.198;2023-08-24T08:41:56;16.20;99.90
25991;DHT22;13779;-33.886;151.198;2023-08-24T08:44:30;16.20;99.90
25991;DHT22;13779;-33.886;151.198;2023-08-24T08:47:01;16.20;99.90
25991;DHT22;13779;-33.886;151.198;2023-08-24T08:49:32;16.10;99.90
25991;DHT22;13779;-33.886;151.198;2023-08-24T08:52:07;16.10;99.90
25991;DHT22;13779;-33.886;151.198;2023-08-24T08:54:38;16.10;99.90
25991;DHT22;13779;-33.886;151.198;2023-08-24T08:57:08;16.10;99.90
25991;DHT22;13779;-33.886;151.198;2023-08-24T08:59:38;16.10;99.90
25991;DHT22;13779;-33.886;151.198;2023-08-24T09:02:14;16.10;99.90
25991;DHT22;13779;-33.886;151.198;2023-08-24T09:04:47;16.10;99.90
25991;DHT22;13779;-33.886;151.198;2023-08-24T09:07:18;16.10;99.90
25991;DHT22;13779;-33.886;151.198;2023-08-24T09:09:50;16.10;99.90
25991;DHT22;13779;-33.886;151.198;2023-08-24T09:12:20;16.10;99.90
25991;DHT22;13779;-33.886;151.198;2023-08-24T09:14:50;16.10;99.90
25991;DHT22;13779;-33.886;151.198;2023-08-24T09:17:21;16.00;99.90
25991;DHT22;13779;-33.886;151.198;2023-08-24T09:19:58;16.00;99.90
25991;DHT22;13779;-33.886;151.198;2023-08-24T09:22:35;16.00;99.90
25991;DHT22;13779;-33.886;151.198;2023-08-24T09:25:09;16.00;99.90
25991;DHT22;13779;-33.886;151.198;2023-08-24T09:27:39;16.00;99.90
25991;DHT22;13779;-33.886;151.198;2023-08-24T09:30:11;16.00;99.90
25991;DHT22;13779;-33.886;151.198;2023-08-24T09:32:42;16.00;99.90
25991;DHT22;13779;-33.886;151.198;2023-08-24T09:35:14;16.10;99.90
25991;DHT22;13779;-33.886;151.198;2023-08-24T09:37:46;16.10;99.90
25991;DHT22;13779;-33.886;151.198;2023-08-24T09:40:24;16.10;99.90
25991;DHT22;13779;-33.886;151.198;2023-08-24T09:43:02;16.10;99.90
25991;DHT22;13779;-33.886;151.198;2023-08-24T09:45:34;16.10;99.90
25991;DHT22;13779;-33.886;151.198;2023-08-24T09:48:06;16.00;99.90
25991;DHT22;13779;-33.886;151.198;2023-08-24T09:50:37;16.10;99.90
25991;DHT22;13779;-33.886;151.198;2023-08-24T09:53:12;16.10;99.90
25991;DHT22;13779;-33.886;151.198;2023-08-24T09:55:54;16.00;99.90
25991;DHT22;13779;-33.886;151.198;2023-08-24T09:58:25;16.10;99.90
25991;DHT22;13779;-33.886;151.198;2023-08-24T10:00:56;16.10;99.90
25991;DHT22;13779;-33.886;151.198;2023-08-24T10:03:28;16.10;99.90
25991;DHT22;13779;-33.886;151.198;2023-08-24T10:06:01;16.10;99.90
25991;DHT22;13779;-33.886;151.198;2023-08-24T10:08:39;16.10;99.90
25991;DHT22;13779;-33.886;151.198;2023-08-24T10:11:11;16.10;99.90
25991;DHT22;13779;-33.886;151.198;2023-08-24T10:16:27;16.00;99.90
25991;DHT22;13779;-33.886;151.198;2023-08-24T10:19:00;16.00;99.90
25991;DHT22;13779;-33.886;151.198;2023-08-24T10:21:31;16.00;99.90
25991;DHT22;13779;-33.886;151.198;2023-08-24T10:24:02;15.90;99.90
25991;DHT22;13779;-33.886;151.198;2023-08-24T10:26:33;15.90;99.90
25991;DHT22;13779;-33.886;151.198;2023-08-24T10:29:04;15.90;99.90
25991;DHT22;13779;-33.886;151.198;2023-08-24T10:31:36;15.90;99.90
25991;DHT22;13779;-33.886;151.198;2023-08-24T10:34:07;15.80;99.90
25991;DHT22;13779;-33.886;151.198;2023-08-24T10:36:41;15.80;99.90
25991;DHT22;13779;-33.886;151.198;2023-08-24T10:39:12;15.70;99.90
25991;DHT22;13779;-33.886;151.198;2023-08-24T10:41:50;15.70;99.90
25991;DHT22;13779;-33.886;151.198;2023-08-24T10:44:47;15.70;99.90
25991;DHT22;13779;-33.886;151.198;2023-08-24T10:47:20;15.70;99.90
25991;DHT22;13779;-33.886;151.198;2023-08-24T10:52:32;15.70;99.90
25991;DHT22;13779;-33.886;151.198;2023-08-24T10:55:20;15.70;99.90
25991;DHT22;13779;-33.886;151.198;2023-08-24T10:58:01;15.70;99.90
25991;DHT22;13779;-33.886;151.198;2023-08-24T11:00:32;15.70;99.90
25991;DHT22;13779;-33.886;151.198;2023-08-24T11:03:03;15.60;99.90
25991;DHT22;13779;-33.886;151.198;2023-08-24T11:05:42;15.60;99.90
25991;DHT22;13779;-33.886;151.198;2023-08-24T11:08:13;15.60;99.90
25991;DHT22;13779;-33.886;151.198;2023-08-24T11:10:50;15.50;99.90
25991;DHT22;13779;-33.886;151.198;2023-08-24T11:13:27;15.50;99.90
25991;DHT22;13779;-33.886;151.198;2023-08-24T11:15:59;15.50;99.90
25991;DHT22;13779;-33.886;151.198;2023-08-24T11:18:40;15.40;99.90
25991;DHT22;13779;-33.886;151.198;2023-08-24T11:21:11;15.30;99.90
25991;DHT22;13779;-33.886;151.198;2023-08-24T11:23:43;15.30;99.90
25991;DHT22;13779;-33.886;151.198;2023-08-24T11:26:15;15.30;99.90
25991;DHT22;13779;-33.886;151.198;2023-08-24T11:28:45;15.30;99.90
25991;DHT22;13779;-33.886;151.198;2023-08-24T11:31:20;15.30;99.90
25991;DHT22;13779;-33.886;151.198;2023-08-24T11:33:54;15.30;99.90
25991;DHT22;13779;-33.886;151.198;2023-08-24T11:36:25;15.20;99.90
25991;DHT22;13779;-33.886;151.198;2023-08-24T11:38:59;15.20;99.90
25991;DHT22;13779;-33.886;151.198;2023-08-24T11:41:30;15.20;99.90
25991;DHT22;13779;-33.886;151.198;2023-08-24T11:44:04;15.20;99.90
25991;DHT22;13779;-33.886;151.198;2023-08-24T11:46:50;15.20;99.90
25991;DHT22;13779;-33.886;151.198;2023-08-24T11:49:23;15.10;99.90
25991;DHT22;13779;-33.886;151.198;2023-08-24T11:51:55;15.10;99.90
25991;DHT22;13779;-33.886;151.198;2023-08-24T11:54:27;15.10;99.90
25991;DHT22;13779;-33.886;151.198;2023-08-24T11:56:58;15.00;99.90
25991;DHT22;13779;-33.886;151.198;2023-08-24T11:59:29;15.10;99.90
25991;DHT22;13779;-33.886;151.198;2023-08-24T12:02:00;15.10;99.90
25991;DHT22;13779;-33.886;151.198;2023-08-24T12:04:42;15.10;99.90
25991;DHT22;13779;-33.886;151.198;2023-08-24T12:07:13;15.10;99.90
25991;DHT22;13779;-33.886;151.198;2023-08-24T12:09:44;15.10;99.90
25991;DHT22;13779;-33.886;151.198;2023-08-24T12:12:16;15.10;99.90
25991;DHT22;13779;-33.886;151.198;2023-08-24T12:14:49;15.00;99.90
25991;DHT22;13779;-33.886;151.198;2023-08-24T12:17:23;15.00;99.90
25991;DHT22;13779;-33.886;151.198;2023-08-24T12:20:01;15.00;99.90
25991;DHT22;13779;-33.886;151.198;2023-08-24T12:22:37;15.00;99.90
25991;DHT22;13779;-33.886;151.198;2023-08-24T12:25:11;14.90;99.90
25991;DHT22;13779;-33.886;151.198;2023-08-24T12:27:49;14.90;99.90
25991;DHT22;13779;-33.886;151.198;2023-08-24T12:30:24;14.90;99.90
25991;DHT22;13779;-33.886;151.198;2023-08-24T12:32:56;14.90;99.90
25991;DHT22;13779;-33.886;151.198;2023-08-24T12:35:30;14.80;99.90
25991;DHT22;13779;-33.886;151.198;2023-08-24T12:38:00;14.80;99.90
25991;DHT22;13779;-33.886;151.198;2023-08-24T12:40:32;14.80;99.90
25991;DHT22;13779;-33.886;151.198;2023-08-24T12:43:02;14.80;99.90
25991;DHT22;13779;-33.886;151.198;2023-08-24T12:45:33;14.80;99.90
25991;DHT22;13779;-33.886;151.198;2023-08-24T12:48:04;14.80;99.90
25991;DHT22;13779;-33.886;151.198;2023-08-24T12:50:39;14.80;99.90
25991;DHT22;13779;-33.886;151.198;2023-08-24T12:53:09;14.70;99.90
25991;DHT22;13779;-33.886;151.198;2023-08-24T12:55:40;14.70;99.90
25991;DHT22;13779;-33.886;151.198;2023-08-24T12:58:11;14.60;99.90
25991;DHT22;13779;-33.886;151.198;2023-08-24T13:00:42;14.60;99.90
25991;DHT22;13779;-33.886;151.198;2023-08-24T13:03:12;14.50;99.90
25991;DHT22;13779;-33.886;151.198;2023-08-24T13:05:43;14.40;99.90
25991;DHT22;13779;-33.886;151.198;2023-08-24T13:08:14;14.30;99.90
25991;DHT22;13779;-33.886;151.198;2023-08-24T13:10:47;14.30;99.90
25991;DHT22;13779;-33.886;151.198;2023-08-24T13:13:18;14.30;99.90
25991;DHT22;13779;-33.886;151.198;2023-08-24T13:15:51;14.30;99.90
25991;DHT22;13779;-33.886;151.198;2023-08-24T13:18:22;14.30;99.90
25991;DHT22;13779;-33.886;151.198;2023-08-24T13:20:53;14.30;99.90
25991;DHT22;13779;-33.886;151.198;2023-08-24T13:23:26;14.20;99.90
25991;DHT22;13779;-33.886;151.198;2023-08-24T13:26:00;14.20;99.90
25991;DHT22;13779;-33.886;151.198;2023-08-24T13:31:11;14.20;99.90
25991;DHT22;13779;-33.886;151.198;2023-08-24T13:33:42;14.20;99.90
25991;DHT22;13779;-33.886;151.198;2023-08-24T13:36:13;14.20;99.90
25991;DHT22;13779;-33.886;151.198;2023-08-24T13:38:44;14.20;99.90
25991;DHT22;13779;-33.886;151.198;2023-08-24T13:41:15;14.30;99.90
25991;DHT22;13779;-33.886;151.198;2023-08-24T13:43:46;14.20;99.90
25991;DHT22;13779;-33.886;151.198;2023-08-24T13:46:16;14.20;99.90
25991;DHT22;13779;-33.886;151.198;2023-08-24T13:48:48;14.10;99.90
25991;DHT22;13779;-33.886;151.198;2023-08-24T13:51:18;14.00;99.90
25991;DHT22;13779;-33.886;151.198;2023-08-24T13:53:49;14.00;99.90
25991;DHT22;13779;-33.886;151.198;2023-08-24T13:56:20;13.90;99.90
25991;DHT22;13779;-33.886;151.198;2023-08-24T13:58:50;14.00;99.90
25991;DHT22;13779;-33.886;151.198;2023-08-24T14:01:21;14.00;99.90
25991;DHT22;13779;-33.886;151.198;2023-08-24T14:03:51;14.00;99.90
25991;DHT22;13779;-33.886;151.198;2023-08-24T14:06:22;14.00;99.90
25991;DHT22;13779;-33.886;151.198;2023-08-24T14:08:53;14.00;99.90
25991;DHT22;13779;-33.886;151.198;2023-08-24T14:11:24;13.90;99.90
25991;DHT22;13779;-33.886;151.198;2023-08-24T14:13:54;13.90;99.90
25991;DHT22;13779;-33.886;151.198;2023-08-24T14:16:25;13.80;99.90
25991;DHT22;13779;-33.886;151.198;2023-08-24T14:18:56;13.80;99.90
25991;DHT22;13779;-33.886;151.198;2023-08-24T14:21:28;13.70;99.90
25991;DHT22;13779;-33.886;151.198;2023-08-24T14:24:11;13.80;99.90
25991;DHT22;13779;-33.886;151.198;2023-08-24T14:26:41;13.70;99.90
25991;DHT22;13779;-33.886;151.198;2023-08-24T14:29:15;13.80;99.90
25991;DHT22;13779;-33.886;151.198;2023-08-24T14:31:49;13.70;99.90
25991;DHT22;13779;-33.886;151.198;2023-08-24T14:34:20;13.80;99.90
25991;DHT22;13779;-33.886;151.198;2023-08-24T14:36:51;13.70;99.90
25991;DHT22;13779;-33.886;151.198;2023-08-24T14:39:22;13.70;99.90
25991;DHT22;13779;-33.886;151.198;2023-08-24T14:41:53;13.60;99.90
25991;DHT22;13779;-33.886;151.198;2023-08-24T14:44:24;13.60;99.90
25991;DHT22;13779;-33.886;151.198;2023-08-24T14:46:54;13.60;99.90
25991;DHT22;13779;-33.886;151.198;2023-08-24T14:49:25;13.60;99.90
25991;DHT22;13779;-33.886;151.198;2023-08-24T14:51:56;13.60;99.90
25991;DHT22;13779;-33.886;151.198;2023-08-24T14:54:26;13.50;99.90
25991;DHT22;13779;-33.886;151.198;2023-08-24T14:56:56;13.50;99.90
25991;DHT22;13779;-33.886;151.198;2023-08-24T14:59:28;13.50;99.90
25991;DHT22;13779;-33.886;151.198;2023-08-24T15:01:58;13.60;99.90
25991;DHT22;13779;-33.886;151.198;2023-08-24T15:04:31;13.60;99.90
25991;DHT22;13779;-33.886;151.198;2023-08-24T15:07:02;13.60;99.90
25991;DHT22;13779;-33.886;151.198;2023-08-24T15:09:32;13.50;99.90
25991;DHT22;13779;-33.886;151.198;2023-08-24T15:12:02;13.50;99.90
25991;DHT22;13779;-33.886;151.198;2023-08-24T15:14:33;13.50;99.90
25991;DHT22;13779;-33.886;151.198;2023-08-24T15:17:03;13.50;99.90
25991;DHT22;13779;-33.886;151.198;2023-08-24T15:19:34;13.60;99.90
25991;DHT22;13779;-33.886;151.198;2023-08-24T15:22:04;13.50;99.90
25991;DHT22;13779;-33.886;151.198;2023-08-24T15:24:34;13.40;99.90
25991;DHT22;13779;-33.886;151.198;2023-08-24T15:27:07;13.30;99.90
25991;DHT22;13779;-33.886;151.198;2023-08-24T15:29:42;13.20;99.90